Time;durP1;ratioP1;P1;durP2;ratioP2;P2;SDS_P1;SDS_P2;PMS_P1;PMS_P2;Temp;Humidity;BMP_temperature;BMP_pressure;BME280_temperature;BME280_humidity;BME280_pressure;Samples;Min_cycle;Max_cycle;Signal;HPM_P1;HPM_P2
2022/08/25 00:00:53;;;;;;;70.22;26.75;;;;;;;18.28;100.00;99651.53;8360767;28;20545;-73
2022/08/25 00:05:12;;;;;;;74.72;28.25;;;;;;;18.26;100.00;99655.72;8391114;28;20074;-74
2022/08/25 00:09:21;;;;;;;93.05;27.80;;;;;;;18.24;100.00;99644.38;8362259;28;20769;-74
2022/08/25 00:13:29;;;;;;;105.15;27.98;;;;;;;18.24;100.00;99660.78;8390567;28;20553;-74
2022/08/25 00:17:37;;;;;;;49.55;25.33;;;;;;;18.21;100.00;99645.03;8390150;28;20098;-74
2022/08/25 00:21:49;;;;;;;43.65;25.38;;;;;;;18.19;100.00;99637.19;8411969;28;20055;-74
2022/08/25 00:25:58;;;;;;;32.85;23.30;;;;;;;18.17;100.00;99649.63;8418334;28;20040;-74
2022/08/25 00:30:10;;;;;;;46.42;23.15;;;;;;;18.12;100.00;99643.25;8428442;28;20450;-73
2022/08/25 00:34:22;;;;;;;52.80;24.58;;;;;;;18.02;100.00;99638.28;8377221;28;20076;-74
2022/08/25 00:38:37;;;;;;;47.70;22.10;;;;;;;17.98;100.00;99637.34;8427605;28;20495;-74
2022/08/25 00:42:55;;;;;;;109.05;26.05;;;;;;;17.95;100.00;99640.78;8426592;28;20083;-73
2022/08/25 00:47:13;;;;;;;40.17;23.17;;;;;;;17.95;100.00;99643.50;8411003;28;20043;-74
2022/08/25 00:51:25;;;;;;;44.58;24.40;;;;;;;17.94;100.00;99641.91;8379504;28;20135;-74
2022/08/25 00:55:52;;;;;;;40.40;22.90;;;;;;;17.95;100.00;99648.97;8417217;28;20074;-74
2022/08/25 01:00:06;;;;;;;105.40;27.27;;;;;;;17.95;100.00;99654.44;8401730;28;20048;-75
2022/08/25 01:04:20;;;;;;;42.72;25.27;;;;;;;17.96;100.00;99658.78;8426694;28;20137;-74
2022/08/25 01:08:36;;;;;;;56.40;24.08;;;;;;;17.96;100.00;99656.03;8427614;28;20575;-75
2022/08/25 01:12:48;;;;;;;56.13;24.60;;;;;;;17.97;100.00;99660.38;8379346;28;20036;-74
2022/08/25 01:16:58;;;;;;;111.35;27.27;;;;;;;17.98;100.00;99652.94;8365502;28;20078;-75
2022/08/25 01:21:10;;;;;;;67.10;26.75;;;;;;;18.02;100.00;99660.13;8327704;28;20072;-75
2022/08/25 01:25:39;;;;;;;147.27;28.15;;;;;;;18.09;100.00;99656.78;8278107;28;20077;-75
2022/08/25 01:29:52;;;;;;;185.55;28.92;;;;;;;18.11;100.00;99652.59;8289167;28;20104;-75
2022/08/25 01:34:03;;;;;;;103.32;26.13;;;;;;;18.13;100.00;99655.78;8256607;28;20054;-75
2022/08/25 01:38:19;;;;;;;131.10;27.55;;;;;;;18.14;100.00;99651.88;8286574;28;20054;-74
2022/08/25 01:42:42;;;;;;;120.47;29.08;;;;;;;18.15;100.00;99645.28;8258342;28;21216;-75
2022/08/25 01:46:51;;;;;;;191.43;36.28;;;;;;;18.18;100.00;99656.69;8288282;28;20045;-74
2022/08/25 01:50:56;;;;;;;187.48;33.65;;;;;;;18.21;100.00;99655.97;8284971;28;20040;-74
2022/08/25 01:55:04;;;;;;;144.65;35.13;;;;;;;18.23;100.00;99648.25;8287612;28;20045;-73
2022/08/25 01:59:13;;;;;;;62.65;28.75;;;;;;;18.29;100.00;99650.38;8378946;28;20147;-74
2022/08/25 02:03:30;;;;;;;187.60;30.98;;;;;;;18.31;100.00;99650.03;8398183;28;20044;-74
2022/08/25 02:07:38;;;;;;;152.27;31.20;;;;;;;18.28;100.00;99650.72;8339920;28;20442;-74
2022/08/25 02:11:49;;;;;;;284.20;37.65;;;;;;;18.28;100.00;99639.78;8376955;28;20122;-74
2022/08/25 02:16:04;;;;;;;280.23;40.55;;;;;;;18.30;100.00;99653.88;8398266;28;20468;-74
2022/08/25 02:20:18;;;;;;;289.33;41.05;;;;;;;18.32;100.00;99646.16;8403908;28;20052;-75
2022/08/25 02:24:30;;;;;;;107.03;33.65;;;;;;;18.35;100.00;99645.44;8395289;28;20090;-75
2022/08/25 02:28:41;;;;;;;178.15;35.35;;;;;;;18.37;100.00;99637.69;8360135;28;20079;-75
2022/08/25 02:32:44;;;;;;;80.88;30.05;;;;;;;18.38;100.00;99633.81;8387599;28;20762;-75
2022/08/25 02:37:01;;;;;;;179.73;33.72;;;;;;;18.38;100.00;99639.28;8355998;28;20813;-75
2022/08/25 02:41:23;;;;;;;95.30;29.05;;;;;;;18.39;100.00;99635.44;8378896;28;20045;-75
2022/08/25 02:45:31;;;;;;;151.13;34.63;;;;;;;18.40;100.00;99637.03;8385407;28;20048;-75
2022/08/25 02:49:45;;;;;;;139.75;32.50;;;;;;;18.42;100.00;99630.03;8372735;28;20131;-75
2022/08/25 02:53:57;;;;;;;117.70;31.02;;;;;;;18.46;100.00;99630.13;8415080;28;20063;-75
2022/08/25 02:58:09;;;;;;;139.95;30.58;;;;;;;18.46;100.00;99624.66;8397013;28;20667;-74
2022/08/25 03:02:17;;;;;;;83.75;25.17;;;;;;;18.49;100.00;99626.72;8426183;28;20044;-74
2022/08/25 03:06:26;;;;;;;115.72;26.35;;;;;;;18.49;100.00;99630.25;8430370;28;20040;-75
2022/08/25 03:10:39;;;;;;;74.03;27.92;;;;;;;18.51;100.00;99621.69;8429212;28;20139;-75
2022/08/25 03:14:44;;;;;;;55.83;23.42;;;;;;;18.51;100.00;99621.69;8421862;28;20506;-75
2022/08/25 03:18:58;;;;;;;88.25;23.60;;;;;;;18.50;100.00;99620.13;8428742;28;20044;-75
2022/08/25 03:23:10;;;;;;;94.10;24.45;;;;;;;18.51;100.00;99621.69;8412560;28;20485;-73
2022/08/25 03:27:14;;;;;;;78.72;23.55;;;;;;;18.51;100.00;99622.47;8417753;28;20062;-71
2022/08/25 03:31:20;;;;;;;85.50;25.38;;;;;;;18.51;100.00;99616.22;8376185;28;20385;-72
2022/08/25 03:35:31;;;;;;;49.85;21.90;;;;;;;18.48;100.00;99614.19;8429473;28;20090;-73
2022/08/25 03:39:51;;;;;;;76.57;24.23;;;;;;;18.41;100.00;99612.03;8404116;28;20049;-74
2022/08/25 03:44:09;;;;;;;53.45;23.67;;;;;;;18.37;100.00;99621.28;8362081;28;20048;-74
2022/08/25 03:48:26;;;;;;;44.42;22.75;;;;;;;18.36;100.00;99608.75;8371772;28;20444;-74
2022/08/25 03:52:46;;;;;;;49.70;21.42;;;;;;;18.30;100.00;99610.16;8350370;28;20071;-73
2022/08/25 03:56:59;;;;;;;38.40;23.02;;;;;;;18.26;100.00;99614.72;8339061;28;20111;-73
2022/08/25 04:01:13;;;;;;;33.25;19.83;;;;;;;18.21;100.00;99623.97;8393187;28;20542;-73
2022/08/25 04:05:23;;;;;;;25.15;19.70;;;;;;;18.19;100.00;99630.94;8396597;28;20556;-73
2022/08/25 04:09:31;;;;;;;30.15;18.75;;;;;;;18.14;100.00;99630.03;8393644;28;20472;-74
2022/08/25 04:13:46;;;;;;;36.13;20.25;;;;;;;18.11;100.00;99638.13;8415897;28;20048;-75
2022/08/25 04:17:57;;;;;;;20.63;17.85;;;;;;;18.06;100.00;99633.69;8347095;28;20040;-74
2022/08/25 04:22:06;;;;;;;25.20;18.60;;;;;;;18.02;100.00;99627.34;8412451;28;20048;-74
2022/08/25 04:26:26;;;;;;;28.52;20.08;;;;;;;17.99;100.00;99633.47;8427482;28;20083;-74
2022/08/25 04:30:37;;;;;;;23.97;18.50;;;;;;;17.96;100.00;99627.91;8411044;28;20040;-73
2022/08/25 04:34:48;;;;;;;19.80;17.77;;;;;;;17.92;100.00;99622.34;8381279;28;20071;-72
2022/08/25 04:39:03;;;;;;;97.88;18.42;;;;;;;17.88;100.00;99626.88;8396832;28;20123;-74
2022/08/25 04:43:14;;;;;;;79.00;18.20;;;;;;;17.87;100.00;99625.28;8364030;28;20194;-74
2022/08/25 04:47:28;;;;;;;25.98;20.02;;;;;;;17.91;100.00;99631.69;8372927;28;20083;-73
2022/08/25 04:51:43;;;;;;;33.95;20.63;;;;;;;17.96;100.00;99623.25;8376633;28;20101;-74
2022/08/25 04:56:11;;;;;;;48.38;19.33;;;;;;;18.03;100.00;99612.50;8356589;28;20541;-74
2022/08/25 05:00:19;;;;;;;30.15;18.92;;;;;;;18.06;100.00;99617.31;8339603;28;20068;-73
2022/08/25 05:04:31;;;;;;;49.77;20.23;;;;;;;18.07;100.00;99613.44;8355624;28;20991;-72
2022/08/25 05:08:40;;;;;;;48.45;20.70;;;;;;;18.04;100.00;99614.09;8332475;28;20044;-72
2022/08/25 05:12:51;;;;;;;47.15;20.58;;;;;;;18.10;100.00;99607.25;8299993;28;20099;-73
2022/08/25 05:17:05;;;;;;;43.38;20.52;;;;;;;18.17;100.00;99611.34;8356234;28;20048;-73
2022/08/25 05:21:17;;;;;;;69.25;23.58;;;;;;;18.26;100.00;99603.78;8386228;28;20047;-73
2022/08/25 05:25:36;;;;;;;44.88;23.00;;;;;;;18.35;100.00;99607.16;8380614;28;20066;-73
2022/08/25 05:29:54;;;;;;;63.47;24.23;;;;;;;18.41;100.00;99600.31;8408339;28;20064;-73
2022/08/25 05:34:09;;;;;;;28.33;23.55;;;;;;;18.58;100.00;99600.03;8384307;28;20048;-73
2022/08/25 05:38:21;;;;;;;40.90;24.13;;;;;;;18.71;100.00;99604.31;8394874;28;20044;-73
2022/08/25 05:42:35;;;;;;;30.63;23.63;;;;;;;18.81;100.00;99598.31;8409053;28;20109;-73
2022/08/25 05:46:49;;;;;;;27.95;22.63;;;;;;;19.01;100.00;99607.44;8426169;28;20059;-73
2022/08/25 05:50:59;;;;;;;28.02;22.73;;;;;;;19.16;100.00;99601.16;8392326;28;20110;-73
2022/08/25 05:55:14;;;;;;;43.90;23.77;;;;;;;19.24;100.00;99604.88;8411530;28;20060;-73
2022/08/25 05:59:23;;;;;;;50.88;23.08;;;;;;;19.21;100.00;99611.84;8390045;28;20084;-73
2022/08/25 06:03:35;;;;;;;32.65;22.50;;;;;;;19.21;100.00;99622.00;8417342;28;20473;-73
2022/08/25 06:07:41;;;;;;;30.65;23.55;;;;;;;19.25;100.00;99623.66;8425167;28;20077;-73
2022/08/25 06:11:57;;;;;;;35.50;23.55;;;;;;;19.32;100.00;99628.53;8425390;28;20051;-73
2022/08/25 06:16:12;;;;;;;40.33;25.60;;;;;;;19.41;100.00;99626.41;8356952;28;20363;-73
2022/08/25 06:20:35;;;;;;;56.08;25.75;;;;;;;19.53;100.00;99629.06;8325310;28;20481;-73
2022/08/25 06:24:53;;;;;;;33.72;27.65;;;;;;;19.70;100.00;99628.72;8325931;28;20143;-72
2022/08/25 06:29:10;;;;;;;35.67;28.75;;;;;;;19.85;100.00;99634.50;8383762;28;20076;-73
2022/08/25 06:33:16;;;;;;;35.38;28.80;;;;;;;19.96;100.00;99630.06;8380488;28;20615;-73
2022/08/25 06:37:31;;;;;;;49.15;31.45;;;;;;;20.03;100.00;99630.22;8368192;28;20147;-73
2022/08/25 06:41:43;;;;;;;47.45;32.00;;;;;;;20.01;100.00;99632.50;8381645;28;20106;-73
2022/08/25 06:45:57;;;;;;;48.75;32.25;;;;;;;20.08;100.00;99638.16;8413227;28;20143;-73
2022/08/25 06:50:15;;;;;;;48.30;32.30;;;;;;;20.22;100.00;99633.78;8413864;28;20059;-73
2022/08/25 06:54:24;;;;;;;44.67;29.75;;;;;;;20.41;100.00;99641.22;8398869;28;20066;-73
2022/08/25 06:58:32;;;;;;;;;;;;;;;20.50;100.00;99644.56;8382444;28;20071;-73
2022/08/25 07:02:43;;;;;;;41.70;28.33;;;;;;;20.49;100.00;99653.94;8432065;28;19951;-73
2022/08/25 07:06:57;;;;;;;49.20;27.63;;;;;;;20.52;100.00;99658.69;8417042;28;20048;-73
2022/08/25 07:11:13;;;;;;;37.08;25.92;;;;;;;20.53;100.00;99649.31;8374940;28;20053;-73
2022/08/25 07:15:24;;;;;;;34.60;25.48;;;;;;;20.58;100.00;99651.78;8358579;28;20145;-73
2022/08/25 07:19:40;;;;;;;36.03;24.27;;;;;;;20.69;100.00;99662.16;8383327;28;20044;-74
2022/08/25 07:23:52;;;;;;;37.88;25.15;;;;;;;20.80;100.00;99652.19;8348439;28;20070;-73
2022/08/25 07:28:10;;;;;;;31.45;24.50;;;;;;;20.90;100.00;99657.88;8373682;28;20461;-73
2022/08/25 07:32:35;;;;;;;32.10;22.52;;;;;;;20.98;100.00;99653.31;8348854;28;20041;-73
2022/08/25 07:36:50;;;;;;;39.67;22.23;;;;;;;21.08;100.00;99656.25;8360479;28;20564;-74
2022/08/25 07:41:15;;;;;;;;;;;;;;;;;;;;;
2022/08/25 07:45:29;;;;;;;35.50;18.77;;;;;;;20.98;100.00;99653.31;8393140;28;20128;-73
2022/08/25 07:49:43;;;;;;;36.95;19.48;;;;;;;21.04;100.00;99662.84;8403447;28;20051;-73
2022/08/25 07:53:54;;;;;;;29.45;18.25;;;;;;;21.17;100.00;99656.03;8430609;28;20040;-72
2022/08/25 07:58:12;;;;;;;25.40;13.60;;;;;;;21.29;100.00;99664.09;8411879;28;20081;-73
2022/08/25 08:02:24;;;;;;;28.73;14.82;;;;;;;21.44;100.00;99665.94;8416494;28;20751;-72
2022/08/25 08:06:41;;;;;;;30.60;12.18;;;;;;;21.53;100.00;99656.63;8403318;28;20054;-72
2022/08/25 08:10:56;;;;;;;26.30;12.40;;;;;;;21.63;100.00;99661.50;8429692;28;20662;-73
2022/08/25 08:15:07;;;;;;;28.75;12.82;;;;;;;21.72;100.00;99659.31;8402806;28;20056;-72
2022/08/25 08:19:21;;;;;;;24.58;11.40;;;;;;;21.92;100.00;99652.53;8404504;28;20408;-72
2022/08/25 08:23:35;;;;;;;21.52;8.48;;;;;;;22.07;100.00;99654.34;8420431;28;20052;-73
2022/08/25 08:27:50;;;;;;;21.77;7.60;;;;;;;22.25;100.00;99660.09;8428087;28;20047;-72
2022/08/25 08:32:07;;;;;;;28.55;5.72;;;;;;;22.41;97.17;99646.16;8408471;28;20477;-73
2022/08/25 08:36:18;;;;;;;25.38;5.25;;;;;;;22.63;94.56;99659.00;8394743;28;20052;-72
2022/08/25 08:40:27;;;;;;;23.73;5.40;;;;;;;22.75;92.38;99650.50;8380206;28;20044;-72
2022/08/25 08:44:50;;;;;;;23.52;5.13;;;;;;;22.75;91.14;99650.50;8407682;28;20139;-72
2022/08/25 08:49:36;;;;;;;31.70;5.30;;;;;;;22.77;89.81;99648.16;8347159;28;20048;-72
2022/08/25 08:54:03;;;;;;;24.23;5.00;;;;;;;22.78;89.82;99644.25;8274379;28;20137;-72
2022/08/25 08:58:21;;;;;;;35.20;5.40;;;;;;;22.86;89.22;99648.66;8289557;28;20049;-72
2022/08/25 09:02:38;;;;;;;32.78;5.00;;;;;;;23.01;89.13;99636.59;8224893;28;20050;-72
2022/08/25 09:06:52;;;;;;;35.40;6.50;;;;;;;23.06;88.22;99639.00;8163301;28;20047;-72
2022/08/25 09:11:31;;;;;;;28.10;4.82;;;;;;;23.15;86.50;99636.75;8197789;28;20531;-73
2022/08/25 09:20:56;;;;;;;31.30;5.43;;;;;;;23.06;87.17;99633.50;8100315;29;20433;-72
2022/08/25 09:25:44;;;;;;;28.25;4.90;;;;;;;23.06;87.17;99635.47;8085604;29;20052;-72
2022/08/25 09:29:59;;;;;;;27.92;5.32;;;;;;;23.07;86.48;99629.59;8188305;28;20115;-72
2022/08/25 09:34:14;;;;;;;35.00;5.55;;;;;;;23.10;87.14;99626.09;8287280;28;20054;-72
2022/08/25 09:38:32;;;;;;;28.48;7.22;;;;;;;23.17;87.49;99623.38;8276568;28;20133;-72
2022/08/25 09:43:01;;;;;;;23.10;6.23;;;;;;;23.25;87.56;99609.66;8258163;28;20100;-72
2022/08/25 09:47:35;;;;;;;28.70;6.65;;;;;;;23.32;87.26;99618.00;8227125;28;20039;-72
2022/08/25 09:51:50;;;;;;;28.63;7.00;;;;;;;23.54;87.77;99614.25;8306763;28;20048;-72
2022/08/25 09:56:11;;;;;;;24.67;6.45;;;;;;;23.74;87.63;99612.81;8361397;28;20040;-72
2022/08/25 10:00:33;;;;;;;29.48;7.28;;;;;;;23.90;86.63;99610.53;8393252;28;20102;-72
2022/08/25 10:04:52;;;;;;;27.13;7.13;;;;;;;24.15;86.73;99598.84;8346530;28;20053;-72
2022/08/25 10:09:12;;;;;;;27.63;7.32;;;;;;;24.34;85.39;99601.31;8321981;28;20148;-73
2022/08/25 10:13:36;;;;;;;28.90;6.68;;;;;;;24.32;85.44;99593.41;8347320;28;20045;-72
2022/08/25 10:17:54;;;;;;;25.33;7.78;;;;;;;24.40;84.15;99599.78;8336777;28;20044;-72
2022/08/25 10:22:36;;;;;;;30.55;7.90;;;;;;;24.62;84.55;99584.84;8353362;28;20080;-73
2022/08/25 10:27:18;;;;;;;35.35;7.93;;;;;;;24.98;83.13;99585.72;8292358;28;20128;-72
2022/08/25 10:32:13;;;;;;;27.33;7.63;;;;;;;25.08;83.09;99579.41;8292538;28;20053;-73
2022/08/25 10:36:31;;;;;;;;;;;;;;;25.24;82.88;99570.72;8285900;28;20147;-74
2022/08/25 10:40:59;;;;;;;27.17;8.30;;;;;;;25.37;81.43;99574.69;8274352;28;19928;-72
2022/08/25 10:49:49;;;;;;;39.25;6.97;;;;;;;25.67;80.54;99565.97;8288814;28;20104;-73
2022/08/25 10:54:05;;;;;;;35.38;6.68;;;;;;;25.86;79.82;99561.94;8259057;28;20053;-72
2022/08/25 10:58:30;;;;;;;41.10;6.20;;;;;;;25.96;77.22;99555.63;8261668;28;20058;-73
2022/08/25 11:03:24;;;;;;;50.30;6.30;;;;;;;26.04;76.24;99552.41;8242039;28;20062;-73
2022/08/25 11:07:37;;;;;;;43.17;6.10;;;;;;;26.10;75.92;99550.00;8258559;28;20049;-73
2022/08/25 11:11:51;;;;;;;42.88;6.50;;;;;;;26.09;74.50;99537.34;8252367;28;20495;-73
2022/08/25 11:16:16;;;;;;;41.55;5.18;;;;;;;26.11;74.08;99529.44;8325163;28;20492;-73
2022/08/25 11:20:26;;;;;;;34.35;5.35;;;;;;;26.08;74.55;99525.50;8294222;28;20049;-74
2022/08/25 11:25:15;;;;;;;44.13;6.35;;;;;;;26.19;74.64;99525.44;8294225;28;20073;-74
2022/08/25 11:29:29;;;;;;;44.33;6.18;;;;;;;26.27;72.91;99504.88;8275557;28;20129;-74
2022/08/25 11:33:41;;;;;;;41.05;5.80;;;;;;;26.44;73.89;99512.28;8265756;28;20082;-75
2022/08/25 11:38:26;;;;;;;38.00;5.93;;;;;;;26.52;73.99;99515.78;8366198;28;20563;-74
2022/08/25 11:43:05;;;;;;;39.53;6.43;;;;;;;26.58;73.66;99492.00;8371263;28;20968;-74
2022/08/25 11:47:57;;;;;;;38.75;5.68;;;;;;;26.70;73.05;99504.59;8349368;28;20054;-75
2022/08/25 11:52:05;;;;;;;40.35;6.30;;;;;;;26.79;72.66;99502.16;8362581;28;20150;-75
2022/08/25 11:56:40;;;;;;;39.42;6.22;;;;;;;26.78;71.70;99495.81;8377520;28;20411;-74
2022/08/25 12:00:51;;;;;;;40.10;6.07;;;;;;;26.89;72.60;99495.75;8429768;28;20396;-74
2022/08/25 12:05:02;;;;;;;32.85;6.13;;;;;;;26.90;72.48;99497.34;8394945;28;20428;-75
2022/08/25 12:09:28;;;;;;;37.30;5.93;;;;;;;26.97;71.97;99502.00;8358425;28;20417;-74
2022/08/25 12:13:58;;;;;;;40.40;5.55;;;;;;;26.97;72.76;99486.16;8293022;28;20041;-75
2022/08/25 12:18:42;;;;;;;36.58;6.30;;;;;;;26.99;72.75;99483.78;8326865;28;20053;-74
2022/08/25 12:22:59;;;;;;;39.10;6.25;;;;;;;26.97;72.11;99486.16;8357713;28;20041;-74
2022/08/25 12:27:18;;;;;;;41.20;7.32;;;;;;;27.10;71.19;99484.47;8345892;28;20064;-75
2022/08/25 12:31:37;;;;;;;35.63;6.20;;;;;;;27.34;70.92;99493.75;8365901;28;20473;-75
2022/08/25 12:36:07;;;;;;;53.78;6.43;;;;;;;27.25;70.98;99491.47;8404441;28;20056;-74
2022/08/25 12:40:30;;;;;;;27.42;6.43;;;;;;;27.31;70.89;99495.38;8395696;28;20109;-75
2022/08/25 12:44:51;;;;;;;34.13;6.45;;;;;;;27.39;70.80;99486.97;8380094;28;20087;-74
2022/08/25 12:49:43;;;;;;;41.45;7.03;;;;;;;27.39;70.35;99489.75;8315700;28;20136;-74
2022/08/25 12:53:55;;;;;;;33.50;5.97;;;;;;;27.47;70.08;99486.47;8247075;28;20165;-75
2022/08/25 12:58:12;;;;;;;49.83;6.50;;;;;;;27.58;70.99;99480.84;8259834;28;20433;-75
2022/08/25 13:03:12;;;;;;;34.88;6.20;;;;;;;27.70;70.67;99477.53;8290645;28;20046;-74
2022/08/25 13:07:47;;;;;;;45.80;6.43;;;;;;;27.69;69.85;99467.63;8302025;28;20109;-74
2022/08/25 13:12:34;;;;;;;34.35;7.03;;;;;;;27.69;70.31;99464.88;8341469;28;20060;-74
2022/08/25 13:17:01;;;;;;;47.17;7.47;;;;;;;27.75;69.80;99460.44;8356362;28;20040;-75
2022/08/25 13:21:31;;;;;;;47.13;8.27;;;;;;;27.91;69.92;99460.63;8412478;28;20072;-75
2022/08/25 13:25:50;;;;;;;52.90;7.63;;;;;;;27.63;69.45;99460.97;8410511;28;20052;-72
2022/08/25 13:30:05;;;;;;;50.38;6.95;;;;;;;28.16;68.21;99453.97;8393896;28;20047;-72
2022/08/25 13:34:19;;;;;;;74.18;8.05;;;;;;;29.43;64.13;99463.00;8394284;28;20491;-73
2022/08/25 13:38:36;;;;;;;55.00;7.05;;;;;;;30.37;61.01;99455.81;8376560;28;20080;-74
2022/08/25 13:42:48;;;;;;;49.25;6.72;;;;;;;31.04;59.25;99461.78;8426979;28;20044;-73
2022/08/25 13:47:29;;;;;;;58.60;5.72;;;;;;;32.07;56.70;99465.28;8408610;28;20096;-73
2022/08/25 13:51:59;;;;;;;51.25;6.97;;;;;;;32.61;54.69;99464.41;8427212;28;20040;-73
2022/08/25 13:56:17;;;;;;;54.05;6.68;;;;;;;33.23;53.16;99454.34;8389169;28;20388;-73
2022/08/25 14:00:39;;;;;;;42.22;6.47;;;;;;;33.81;51.78;99454.63;8356701;28;20641;-73
2022/08/25 14:04:51;;;;;;;48.67;7.35;;;;;;;34.42;50.25;99450.28;8351713;28;20136;-73
2022/08/25 14:09:12;;;;;;;37.75;7.15;;;;;;;34.98;48.65;99443.56;8392782;28;20063;-73
2022/08/25 14:13:39;;;;;;;49.50;7.68;;;;;;;35.56;46.84;99438.59;8411053;28;20032;-73
2022/08/25 14:17:51;;;;;;;39.63;6.18;;;;;;;35.82;44.75;99441.06;8361093;28;20411;-73
2022/08/25 14:22:05;;;;;;;38.88;5.72;;;;;;;35.79;44.70;99436.38;8381465;28;20071;-74
2022/08/25 14:26:25;;;;;;;30.67;5.72;;;;;;;36.27;44.23;99429.69;8412438;28;20044;-73
2022/08/25 14:30:39;;;;;;;39.95;5.85;;;;;;;36.35;44.41;99425.25;8399352;28;20472;-73
2022/08/25 14:34:57;;;;;;;35.72;6.95;;;;;;;36.20;44.67;99418.78;8409515;28;20197;-73
2022/08/25 14:39:14;;;;;;;43.95;6.85;;;;;;;34.46;46.72;99420.06;8410861;28;20039;-73
2022/08/25 14:43:25;;;;;;;28.58;6.55;;;;;;;32.95;51.54;99416.91;8399127;28;20056;-73
2022/08/25 14:47:37;;;;;;;37.65;6.95;;;;;;;32.49;53.30;99417.66;8405040;28;20116;-73
2022/08/25 14:51:54;;;;;;;31.70;5.95;;;;;;;31.74;54.75;99413.59;8417203;28;20051;-74
2022/08/25 14:56:12;;;;;;;30.73;6.07;;;;;;;30.96;56.63;99404.59;8378373;28;20370;-74
2022/08/25 15:00:26;;;;;;;36.85;7.10;;;;;;;30.51;57.57;99396.97;8426545;28;20059;-74
2022/08/25 15:04:42;;;;;;;49.72;13.57;;;;;;;30.07;59.22;99392.84;8397596;28;20067;-73
2022/08/25 15:13:23;;;;;;;41.67;7.75;;;;;;;29.44;61.74;99386.66;8360945;28;20529;-73
2022/08/25 15:17:41;;;;;;;43.75;8.82;;;;;;;29.18;62.42;99387.56;8360459;28;20130;-73
2022/08/25 15:21:56;;;;;;;39.17;7.45;;;;;;;28.96;63.38;99374.06;8342065;28;20144;-73
2022/08/25 15:26:10;;;;;;;36.90;6.75;;;;;;;28.83;63.96;99370.31;8337534;28;20493;-72
2022/08/25 15:30:25;;;;;;;41.95;7.07;;;;;;;28.62;64.36;99369.88;8312782;28;20413;-74
2022/08/25 15:34:45;;;;;;;45.67;6.78;;;;;;;28.49;65.66;99369.72;8374618;28;20045;-73
2022/08/25 15:38:57;;;;;;;44.88;6.95;;;;;;;28.37;66.18;99364.75;8334026;28;20453;-72
2022/08/25 15:43:17;;;;;;;40.95;6.93;;;;;;;28.19;66.45;99370.59;8336314;28;20056;-73
2022/08/25 15:47:37;;;;;;;39.00;6.70;;;;;;;28.06;66.73;99356.50;8336722;28;20181;-73
2022/08/25 15:51:44;;;;;;;35.55;6.20;;;;;;;27.94;67.42;99359.06;8324046;28;20064;-73
2022/08/25 15:55:56;;;;;;;30.70;6.28;;;;;;;27.88;67.86;99361.53;8376098;28;20057;-73
2022/08/25 16:00:00;;;;;;;29.45;6.13;;;;;;;27.81;68.30;99361.63;8362906;28;20412;-73
2022/08/25 16:04:01;;;;;;;38.35;6.28;;;;;;;27.68;68.27;99352.31;8348952;28;20063;-73
2022/08/25 16:08:10;;;;;;;43.42;7.18;;;;;;;27.54;68.69;99346.94;8423487;28;20044;-73
2022/08/25 16:12:17;;;;;;;59.40;7.60;;;;;;;27.41;69.32;99332.81;8393242;28;20126;-74
2022/08/25 16:16:26;;;;;;;34.05;6.30;;;;;;;27.34;69.92;99337.69;8373867;28;20047;-73
2022/08/25 16:20:35;;;;;;;42.97;6.18;;;;;;;27.22;70.45;99334.25;8427900;28;20135;-74
2022/08/25 16:24:44;;;;;;;37.53;6.82;;;;;;;27.14;71.40;99335.53;8397975;28;20386;-73
2022/08/25 16:28:53;;;;;;;36.35;6.40;;;;;;;27.06;72.20;99331.28;8421242;28;20051;-73
2022/08/25 16:33:05;;;;;;;53.97;6.68;;;;;;;26.94;72.77;99337.34;8422034;28;20413;-73
2022/08/25 16:37:17;;;;;;;36.47;6.35;;;;;;;26.82;73.15;99340.59;8378856;28;20048;-73
2022/08/25 16:41:37;;;;;;;40.13;6.85;;;;;;;26.72;74.26;99347.84;8406555;28;20044;-74
2022/08/25 16:45:51;;;;;;;34.00;5.47;;;;;;;26.60;75.41;99345.56;8413326;28;20554;-73
2022/08/25 16:50:07;;;;;;;40.65;6.20;;;;;;;26.45;75.80;99344.94;8384001;28;20062;-73
2022/08/25 16:58:41;;;;;;;38.85;6.53;;;;;;;26.21;77.02;99356.19;8385699;28;20071;-73
2022/08/25 17:02:54;;;;;;;39.78;6.60;;;;;;;26.06;78.03;99344.44;8352239;28;20076;-73
2022/08/25 17:07:10;;;;;;;26.77;6.15;;;;;;;25.92;79.31;99339.00;8414450;28;20040;-73
2022/08/25 17:11:27;;;;;;;36.60;6.50;;;;;;;25.79;80.40;99330.41;8415390;28;20131;-73
2022/08/25 17:15:42;;;;;;;33.38;6.95;;;;;;;25.67;81.20;99327.31;8400218;28;20052;-73
2022/08/25 17:19:57;;;;;;;46.72;7.55;;;;;;;25.52;81.82;99338.44;8379057;28;20412;-73
2022/08/25 17:24:14;;;;;;;35.90;7.28;;;;;;;25.39;82.80;99329.00;8416822;28;20044;-73
2022/08/25 17:28:30;;;;;;;40.65;7.68;;;;;;;25.27;83.31;99343.28;8405828;28;20797;-72
2022/08/25 17:32:47;;;;;;;41.92;7.65;;;;;;;25.13;84.65;99343.31;8421709;28;20048;-73
2022/08/25 17:37:05;;;;;;;32.90;7.32;;;;;;;24.97;85.65;99340.22;8384742;28;20415;-73
2022/08/25 17:41:22;;;;;;;42.22;8.30;;;;;;;24.82;86.16;99340.22;8393911;28;20044;-73
2022/08/25 17:45:31;;;;;;;33.78;7.65;;;;;;;24.68;86.87;99340.28;8374914;28;20044;-73
2022/08/25 17:49:42;;;;;;;36.13;7.57;;;;;;;24.53;87.41;99344.25;8392937;28;20428;-73
2022/08/25 17:54:12;;;;;;;33.17;7.32;;;;;;;24.40;88.11;99351.34;8426495;28;20047;-73
2022/08/25 17:58:23;;;;;;;32.28;7.03;;;;;;;24.27;88.59;99347.41;8388984;28;20088;-73
2022/08/25 18:02:35;;;;;;;34.63;7.30;;;;;;;24.14;89.03;99346.19;8373207;28;20052;-73
2022/08/25 18:06:46;;;;;;;32.97;6.65;;;;;;;23.98;89.47;99341.84;8356276;28;20848;-74
2022/08/25 18:10:57;;;;;;;31.98;8.15;;;;;;;23.86;90.14;99344.97;8372708;28;20053;-73
2022/08/25 18:15:09;;;;;;;40.00;8.27;;;;;;;23.77;90.62;99346.53;8372183;28;20528;-73
2022/08/25 18:19:18;;;;;;;31.38;7.47;;;;;;;23.68;90.83;99355.19;8387972;28;20044;-73
2022/08/25 18:23:21;;;;;;;35.05;8.07;;;;;;;23.59;90.94;99346.47;8393921;28;20044;-73
2022/08/25 18:27:34;;;;;;;40.90;7.43;;;;;;;23.46;91.86;99348.03;8402130;28;20043;-73
2022/08/25 18:31:51;;;;;;;43.47;7.90;;;;;;;23.39;91.66;99353.47;8418551;28;20032;-73
2022/08/25 18:36:05;;;;;;;31.42;7.03;;;;;;;23.31;92.22;99351.88;8391023;28;20052;-73
2022/08/25 18:40:24;;;;;;;26.05;7.22;;;;;;;23.26;92.74;99360.50;8373310;28;20424;-73
2022/08/25 18:44:41;;;;;;;26.83;6.55;;;;;;;23.19;92.77;99360.47;8379540;28;20151;-73
2022/08/25 18:48:55;;;;;;;35.55;7.57;;;;;;;23.08;92.67;99358.47;8425635;28;20040;-73
2022/08/25 18:53:14;;;;;;;41.30;7.43;;;;;;;22.99;93.05;99358.03;8351577;28;20451;-73
2022/08/25 18:57:18;;;;;;;25.75;6.72;;;;;;;22.91;93.63;99350.88;8419593;28;20420;-73
2022/08/25 19:01:27;;;;;;;33.88;7.68;;;;;;;22.87;93.94;99357.53;8425134;28;20135;-73
2022/08/25 19:05:41;;;;;;;27.25;7.43;;;;;;;22.81;94.34;99351.59;8391074;28;20068;-73
2022/08/25 19:09:55;;;;;;;35.78;7.78;;;;;;;22.79;94.35;99353.94;8368823;28;20044;-73
2022/08/25 19:14:06;;;;;;;35.75;8.02;;;;;;;22.70;94.29;99345.22;8389160;28;20078;-73
2022/08/25 19:18:33;;;;;;;32.50;7.68;;;;;;;22.64;94.79;99346.75;8392482;28;20048;-73
2022/08/25 19:22:52;;;;;;;40.00;8.52;;;;;;;22.58;94.76;99342.75;8355870;28;20044;-74
2022/08/25 19:27:13;;;;;;;33.10;7.55;;;;;;;22.44;95.27;99337.16;8402102;28;20075;-73
2022/08/25 19:31:27;;;;;;;36.92;8.13;;;;;;;22.38;95.78;99338.69;8374140;28;20048;-73
2022/08/25 19:35:37;;;;;;;38.70;8.18;;;;;;;22.38;95.44;99338.69;8407019;28;20051;-73
2022/08/25 19:39:48;;;;;;;39.75;9.20;;;;;;;22.36;95.66;99330.84;8409500;28;20055;-74
2022/08/25 19:43:56;;;;;;;37.38;9.23;;;;;;;22.40;95.94;99330.84;8405141;28;20469;-74
2022/08/25 19:48:07;;;;;;;36.38;8.20;;;;;;;22.38;96.19;99324.94;8337592;28;20056;-73
2022/08/25 19:52:23;;;;;;;36.47;9.02;;;;;;;22.37;96.12;99320.59;8345843;28;20493;-75
2022/08/25 19:56:33;;;;;;;33.53;9.57;;;;;;;22.33;96.44;99321.38;8346650;28;20063;-75
2022/08/25 20:00:50;;;;;;;38.90;10.45;;;;;;;22.35;97.27;99317.47;8347710;28;20053;-75